Time;durP1;ratioP1;P1;durP2;ratioP2;P2;SDS_P1;SDS_P2;PMS_P1;PMS_P2;Temp;Humidity;BMP_temperature;BMP_pressure;BME280_temperature;BME280_humidity;BME280_pressure;Samples;Min_cycle;Max_cycle;Signal;HPM_P1;HPM_P2
2023/07/04 00:00:37;;;;;;;;;;;;;;;;;;5052814;28;20301;-68
2023/07/04 00:03:05;;;;;;;;;;;;;;;;;;5053377;28;19964;-68
2023/07/04 00:05:31;;;;;;;;;;;;;;;;;;5053016;28;20425;-68
2023/07/04 00:07:58;;;;;;;;;;;;;;;;;;5053329;28;19929;-68
2023/07/04 00:10:25;;;;;;;;;;;;;;;;;;5052963;28;19924;-68
2023/07/04 00:12:52;;;;;;;;;;;;;;;;;;5053476;28;20360;-69
2023/07/04 00:15:18;;;;;;;;;;;;;;;;;;5052906;28;20458;-68
2023/07/04 00:17:45;;;;;;;;;;;;;;;;;;5053321;28;20015;-68
2023/07/04 00:20:13;;;;;;;;;;;;;;;;;;5052211;28;20406;-68
2023/07/04 00:22:40;;;;;;;;;;;;;;;;;;5051848;28;19971;-68
2023/07/04 00:25:07;;;;;;;;;;;;;;;;;;5052866;28;19925;-68
2023/07/04 00:27:33;;;;;;;;;;;;;;;;;;5053154;28;20285;-68
2023/07/04 00:30:02;;;;;;;;;;;;;;;;;;5052010;28;19925;-68
2023/07/04 00:32:30;;;;;;;;;;;;;;;;;;5052826;28;20459;-68
2023/07/04 00:34:56;;;;;;;;;;;;;;;;;;5052496;28;20020;-68
2023/07/04 00:37:24;;;;;;;;;;;;;;;;;;5052391;28;20011;-68
2023/07/04 00:39:51;;;;;;;;;;;;;;;;;;5052603;28;20389;-68
2023/07/04 00:42:17;;;;;;;;;;;;;;;;;;5052938;28;19968;-67
2023/07/04 00:44:47;;;;;;;;;;;;;;;;;;5052861;28;20405;-68
2023/07/04 00:47:21;;;;;;;;;;;;;;;;;;5052261;28;19947;-68
2023/07/04 00:49:49;;;;;;;;;;;;;;;;;;5052407;28;19929;-67
2023/07/04 00:52:17;;;;;;;;;;;;;;;;;;5052370;28;19925;-67
2023/07/04 00:54:47;;;;;;;;;;;;;;;;;;5053282;28;20015;-68
2023/07/04 00:57:15;;;;;;;;;;;;;;;;;;5052309;28;20437;-68
2023/07/04 00:59:44;;;;;;;;;;;;;;;;;;5052372;28;19966;-67
2023/07/04 01:02:11;;;;;;;;;;;;;;;;;;5052097;28;20321;-68
2023/07/04 01:04:39;;;;;;;;;;;;;;;;;;5052656;28;19936;-67
2023/07/04 01:07:10;;;;;;;;;;;;;;;;;;5051780;28;19924;-67
2023/07/04 01:09:39;;;;;;;;;;;;;;;;;;5052267;28;20120;-68
2023/07/04 01:12:07;;;;;;;;;;;;;;;;;;5051976;28;19968;-68
2023/07/04 01:14:34;;;;;;;;;;;;;;;;;;5052209;28;19968;-67
2023/07/04 01:17:02;;;;;;;;;;;;;;;;;;5052002;28;20314;-68
2023/07/04 01:19:30;;;;;;;;;;;;;;;;;;5051809;28;20432;-66
2023/07/04 01:22:04;;;;;;;;;;;;;;;;;;5052272;28;19964;-68
2023/07/04 01:24:36;;;;;;;;;;;;;;;;;;5052178;28;19932;-68
2023/07/04 01:27:04;;;;;;;;;;;;;;;;;;5051790;28;19976;-68
2023/07/04 01:29:31;;;;;;;;;;;;;;;;;;5051398;28;20354;-68
2023/07/04 01:32:01;;;;;;;;;;;;;;;;;;5052046;28;19931;-68
2023/07/04 01:34:28;;;;;;;;;;;;;;;;;;5062992;28;19924;-68
2023/07/04 01:36:54;;;;;;;;;;;;;;;;;;5071563;28;20014;-68
2023/07/04 01:39:21;;;;;;;;;;;;;;;;;;5071425;28;20397;-68
2023/07/04 01:41:49;;;;;;;;;;;;;;;;;;5071340;28;19930;-68
2023/07/04 01:44:18;;;;;;;;;;;;;;;;;;5071764;28;20285;-68
2023/07/04 01:46:45;;;;;;;;;;;;;;;;;;5071476;28;19924;-68
2023/07/04 01:49:11;;;;;;;;;;;;;;;;;;5071089;28;19931;-68
2023/07/04 01:51:40;;;;;;;;;;;;;;;;;;5071254;28;19971;-68
2023/07/04 01:54:08;;;;;;;;;;;;;;;;;;5070789;28;20409;-68
2023/07/04 01:56:35;;;;;;;;;;;;;;;;;;5071414;28;19924;-68
2023/07/04 01:59:01;;;;;;;;;;;;;;;;;;5071948;28;19931;-68
2023/07/04 02:01:29;;;;;;;;;;;;;;;;;;5070871;28;19931;-68
2023/07/04 02:03:55;;;;;;;;;;;;;;;;;;5071381;28;19971;-68
2023/07/04 02:06:22;;;;;;;;;;;;;;;;;;5070659;28;20389;-68
2023/07/04 02:08:48;;;;;;;;;;;;;;;;;;5070980;28;19972;-68
2023/07/04 02:11:14;;;;;;;;;;;;;;;;;;5070602;28;19924;-68
2023/07/04 02:13:41;;;;;;;;;;;;;;;;;;5070859;28;19975;-69
2023/07/04 02:16:07;;;;;;;;;;;;;;;;;;5070909;28;19924;-68
2023/07/04 02:18:35;;;;;;;;;;;;;;;;;;5071138;28;20388;-68
2023/07/04 02:21:01;;;;;;;;;;;;;;;;;;5070067;28;19924;-68
2023/07/04 02:23:28;;;;;;;;;;;;;;;;;;5071298;28;19982;-68
2023/07/04 02:25:54;;;;;;;;;;;;;;;;;;5070614;28;20007;-68
2023/07/04 02:28:21;;;;;;;;;;;;;;;;;;5070888;28;19925;-68
2023/07/04 02:30:57;;;;;;;;;;;;;;;;;;5069979;28;19924;-68
2023/07/04 02:33:24;;;;;;;;;;;;;;;;;;5070692;28;19931;-68
2023/07/04 02:35:51;;;;;;;;;;;;;;;;;;5070464;28;19924;-68
2023/07/04 02:38:18;;;;;;;;;;;;;;;;;;5070938;28;19930;-68
2023/07/04 02:40:45;;;;;;;;;;;;;;;;;;5070464;28;19935;-68
2023/07/04 02:43:11;;;;;;;;;;;;;;;;;;5070159;28;20366;-68
2023/07/04 02:45:38;;;;;;;;;;;;;;;;;;5070026;28;19924;-68
2023/07/04 02:48:04;;;;;;;;;;;;;;;;;;5070036;28;20036;-68
2023/07/04 02:50:31;;;;;;;;;;;;;;;;;;5069922;28;19935;-68
2023/07/04 02:53:00;;;;;;;;;;;;;;;;;;5070295;28;19930;-68
2023/07/04 02:55:26;;;;;;;;;;;;;;;;;;5070755;28;19925;-67
2023/07/04 02:57:53;;;;;;;;;;;;;;;;;;5070083;28;19925;-67
2023/07/04 03:00:19;;;;;;;;;;;;;;;;;;5070460;28;19924;-68
2023/07/04 03:02:46;;;;;;;;;;;;;;;;;;5069959;28;19966;-68
2023/07/04 03:05:12;;;;;;;;;;;;;;;;;;5070776;28;20401;-68
2023/07/04 03:07:39;;;;;;;;;;;;;;;;;;5069821;28;19930;-68
2023/07/04 03:10:07;;;;;;;;;;;;;;;;;;5070137;28;19924;-68
2023/07/04 03:12:33;;;;;;;;;;;;;;;;;;5070370;28;19925;-68
2023/07/04 03:15:00;;;;;;;;;;;;;;;;;;5069964;28;19929;-68
2023/07/04 03:17:26;;;;;;;;;;;;;;;;;;5070090;28;19999;-68
2023/07/04 03:19:52;;;;;;;;;;;;;;;;;;5069738;28;20297;-68
2023/07/04 03:22:19;;;;;;;;;;;;;;;;;;5070172;28;19924;-68
2023/07/04 03:24:45;;;;;;;;;;;;;;;;;;5070106;28;19924;-68
2023/07/04 03:27:13;;;;;;;;;;;;;;;;;;5070140;28;19925;-68
2023/07/04 03:29:39;;;;;;;;;;;;;;;;;;5069183;28;20301;-68
2023/07/04 03:32:06;;;;;;;;;;;;;;;;;;5070066;28;19924;-68
2023/07/04 03:34:32;;;;;;;;;;;;;;;;;;5069854;28;20390;-68
2023/07/04 03:36:59;;;;;;;;;;;;;;;;;;5069981;28;19925;-68
2023/07/04 03:39:25;;;;;;;;;;;;;;;;;;5074643;22;19925;-67
2023/07/04 03:41:52;;;;;;;;;;;;;;;;;;5029986;28;19932;-67
2023/07/04 03:44:19;;;;;;;;;;;;;;;;;;5029482;28;20567;-67
2023/07/04 03:46:46;;;;;;;;;;;;;;;;;;5029887;28;19935;-67
2023/07/04 03:49:12;;;;;;;;;;;;;;;;;;5030230;28;20401;-68
2023/07/04 03:51:38;;;;;;;;;;;;;;;;;;5029329;28;19925;-67
2023/07/04 03:54:05;;;;;;;;;;;;;;;;;;5030093;28;20405;-67
2023/07/04 03:56:31;;;;;;;;;;;;;;;;;;5030520;28;19931;-67
2023/07/04 03:58:58;;;;;;;;;;;;;;;;;;5033458;28;19932;-68
2023/07/04 04:01:25;;;;;;;;;;;;;;;;;;5032796;28;19925;-67
2023/07/04 04:03:53;;;;;;;;;;;;;;;;;;5033223;28;19931;-67
2023/07/04 04:06:20;;;;;;;;;;;;;;;;;;5033298;28;20000;-68
2023/07/04 04:08:47;;;;;;;;;;;;;;;;;;5033504;28;19925;-67
2023/07/04 04:11:13;;;;;;;;;;;;;;;;;;5032828;28;19939;-67
2023/07/04 04:13:40;;;;;;;;;;;;;;;;;;5033391;28;19936;-67
2023/07/04 04:16:07;;;;;;;;;;;;;;;;;;5033169;28;19972;-68
2023/07/04 04:18:35;;;;;;;;;;;;;;;;;;5033418;28;19925;-67
2023/07/04 04:21:01;;;;;;;;;;;;;;;;;;5032832;28;20394;-67
2023/07/04 04:23:27;;;;;;;;;;;;;;;;;;5033014;28;20325;-67
2023/07/04 04:25:54;;;;;;;;;;;;;;;;;;5033535;28;19925;-67
2023/07/04 04:28:20;;;;;;;;;;;;;;;;;;5032394;28;19929;-67
2023/07/04 04:30:47;;;;;;;;;;;;;;;;;;5032777;28;19932;-67
2023/07/04 04:33:16;;;;;;;;;;;;;;;;;;5032700;28;19925;-67
2023/07/04 04:35:44;;;;;;;;;;;;;;;;;;5033323;28;19991;-68
2023/07/04 04:38:11;;;;;;;;;;;;;;;;;;5032403;28;19931;-68
2023/07/04 04:40:37;;;;;;;;;;;;;;;;;;5032049;28;20409;-67
2023/07/04 04:43:04;;;;;;;;;;;;;;;;;;5032771;28;19979;-67
2023/07/04 04:45:30;;;;;;;;;;;;;;;;;;5032901;28;19929;-68
2023/07/04 04:47:57;;;;;;;;;;;;;;;;;;5032479;28;20363;-67
2023/07/04 04:50:24;;;;;;;;;;;;;;;;;;5032354;28;20519;-67
2023/07/04 04:52:52;;;;;;;;;;;;;;;;;;5032155;28;20319;-67
2023/07/04 04:55:18;;;;;;;;;;;;;;;;;;5032332;28;19948;-67
2023/07/04 04:57:45;;;;;;;;;;;;;;;;;;5032478;28;20466;-67
2023/07/04 05:00:13;;;;;;;;;;;;;;;;;;5032062;28;20390;-67
2023/07/04 05:02:39;;;;;;;;;;;;;;;;;;5032474;28;19929;-67
2023/07/04 05:05:06;;;;;;;;;;;;;;;;;;5032102;28;19925;-67
2023/07/04 05:07:33;;;;;;;;;;;;;;;;;;5032000;28;19931;-68
2023/07/04 05:10:02;;;;;;;;;;;;;;;;;;5031292;28;19925;-67
2023/07/04 05:12:28;;;;;;;;;;;;;;;;;;5032567;28;19929;-68
2023/07/04 05:14:55;;;;;;;;;;;;;;;;;;5032066;28;19925;-67
2023/07/04 05:17:21;;;;;;;;;;;;;;;;;;5032174;28;19936;-67
2023/07/04 05:19:49;;;;;;;;;;;;;;;;;;5031764;28;20294;-67
2023/07/04 05:22:15;;;;;;;;;;;;;;;;;;5032143;28;20433;-67
2023/07/04 05:24:41;;;;;;;;;;;;;;;;;;5031995;28;19931;-67
2023/07/04 05:27:09;;;;;;;;;;;;;;;;;;5032068;28;20212;-67
2023/07/04 05:29:36;;;;;;;;;;;;;;;;;;5031338;28;19932;-68
2023/07/04 05:32:02;;;;;;;;;;;;;;;;;;5030967;28;19925;-67
2023/07/04 05:34:29;;;;;;;;;;;;;;;;;;5031626;28;20031;-67
2023/07/04 05:36:55;;;;;;;;;;;;;;;;;;5031272;28;20361;-67
2023/07/04 05:39:21;;;;;;;;;;;;;;;;;;5031776;28;20000;-67
2023/07/04 05:41:48;;;;;;;;;;;;;;;;;;5031039;28;20027;-67
2023/07/04 05:44:17;;;;;;;;;;;;;;;;;;5031507;28;19925;-67
2023/07/04 05:46:43;;;;;;;;;;;;;;;;;;5031461;28;20298;-68
2023/07/04 05:49:09;;;;;;;;;;;;;;;;;;5031511;28;20400;-67
2023/07/04 05:51:36;;;;;;;;;;;;;;;;;;5030542;28;20279;-67
2023/07/04 05:54:02;;;;;;;;;;;;;;;;;;5031622;28;19931;-67
2023/07/04 05:56:30;;;;;;;;;;;;;;;;;;5030982;28;19925;-67
2023/07/04 05:58:57;;;;;;;;;;;;;;;;;;5031611;28;19929;-67
2023/07/04 06:01:26;;;;;;;;;;;;;;;;;;5030506;28;20036;-67
2023/07/04 06:03:53;;;;;;;;;;;;;;;;;;5031157;28;19925;-68
2023/07/04 06:06:20;;;;;;;;;;;;;;;;;;5030780;28;19931;-67
2023/07/04 06:08:47;;;;;;;;;;;;;;;;;;5031345;28;20015;-67
2023/07/04 06:11:13;;;;;;;;;;;;;;;;;;5030792;28;19931;-67
2023/07/04 06:13:40;;;;;;;;;;;;;;;;;;5030647;28;19925;-67
2023/07/04 06:16:07;;;;;;;;;;;;;;;;;;5030991;28;19925;-67
2023/07/04 06:18:34;;;;;;;;;;;;;;;;;;5030395;28;19951;-68
2023/07/04 06:21:07;;;;;;;;;;;;;;;;;;5030580;28;19931;-67
2023/07/04 06:23:34;;;;;;;;;;;;;;;;;;5030754;28;19925;-67
2023/07/04 06:26:00;;;;;;;;;;;;;;;;;;5031227;28;19926;-68
2023/07/04 06:28:27;;;;;;;;;;;;;;;;;;5030621;28;20339;-67
2023/07/04 06:30:53;;;;;;;;;;;;;;;;;;5030292;28;20032;-67
2023/07/04 06:33:19;;;;;;;;;;;;;;;;;;5030137;28;19925;-67
2023/07/04 06:35:47;;;;;;;;;;;;;;;;;;5030645;28;19925;-68
2023/07/04 06:38:14;;;;;;;;;;;;;;;;;;5030386;28;19936;-68
2023/07/04 06:40:41;;;;;;;;;;;;;;;;;;5029768;28;20211;-68
2023/07/04 06:43:07;;;;;;;;;;;;;;;;;;5029409;28;19937;-67
2023/07/04 06:45:35;;;;;;;;;;;;;;;;;;5029678;28;19925;-68
2023/07/04 06:48:01;;;;;;;;;;;;;;;;;;5030028;28;19968;-68
2023/07/04 06:50:28;;;;;;;;;;;;;;;;;;5028934;28;19925;-68
2023/07/04 06:52:56;;;;;;;;;;;;;;;;;;5029732;28;20298;-68
2023/07/04 06:55:22;;;;;;;;;;;;;;;;;;5029297;28;19929;-67
2023/07/04 06:57:49;;;;;;;;;;;;;;;;;;5029559;28;19925;-67
2023/07/04 07:00:15;;;;;;;;;;;;;;;;;;5028427;28;19932;-67
2023/07/04 07:02:41;;;;;;;;;;;;;;;;;;5029573;28;19925;-66
2023/07/04 07:05:08;;;;;;;;;;;;;;;;;;5029518;28;19925;-66
2023/07/04 07:07:34;;;;;;;;;;;;;;;;;;5024161;28;19929;-66
2023/07/04 07:10:02;;;;;;;;;;;;;;;;;;5039642;28;19932;-67
2023/07/04 07:12:30;;;;;;;;;;;;;;;;;;5046213;28;19925;-67
2023/07/04 07:14:57;;;;;;;;;;;;;;;;;;5008796;28;20407;-67
2023/07/04 07:17:23;;;;;;;;;;;;;;;;;;5009525;28;20012;-67
2023/07/04 07:19:50;;;;;;;;;;;;;;;;;;5009307;28;20347;-67
2023/07/04 07:22:16;;;;;;;;;;;;;;;;;;5008934;28;19925;-67
2023/07/04 07:24:42;;;;;;;;;;;;;;;;;;5009684;28;20297;-67
2023/07/04 07:27:10;;;;;;;;;;;;;;;;;;5009156;28;20386;-67
2023/07/04 07:29:37;;;;;;;;;;;;;;;;;;5008690;28;19932;-68
2023/07/04 07:32:04;;;;;;;;;;;;;;;;;;5012407;28;19929;-68
2023/07/04 07:34:30;;;;;;;;;;;;;;;;;;5046738;28;20459;-68
2023/07/04 07:36:57;;;;;;;;;;;;;;;;;;5052271;28;19925;-68
2023/07/04 07:39:24;;;;;;;;;;;;;;;;;;4987140;28;1838510;-68
2023/07/04 07:41:50;;;;;;;;;;;;;;;;;;5052852;28;19924;-67
2023/07/04 07:44:18;;;;;;;;;;;;;;;;;;5053151;28;20393;-68
2023/07/04 07:46:45;;;;;;;;;;;;;;;;;;5053544;28;19925;-67
2023/07/04 07:49:11;;;;;;;;;;;;;;;;;;5052952;28;19931;-68
2023/07/04 07:51:38;;;;;;;;;;;;;;;;;;5053009;28;20297;-69
2023/07/04 07:54:06;;;;;;;;;;;;;;;;;;5037530;28;19929;-69
2023/07/04 07:56:34;;;;;;;;;;;;;;;;;;5032463;28;19937;-68
2023/07/04 07:59:00;;;;;;;;;;;;;;;;;;5033373;28;19925;-68
2023/07/04 08:01:31;;;;;;;;;;;;;;;;;;5032660;28;19925;-69
2023/07/04 08:03:57;;;;;;;;;;;;;;;;;;5039512;28;19929;-70
2023/07/04 08:06:25;;;;;;;;;;;;;;;;;;5052367;28;19972;-67
2023/07/04 08:08:51;;;;;;;;;;;;;;;;;;5053140;28;19937;-68
2023/07/04 08:11:17;;;;;;;;;;;;;;;;;;5052847;28;19928;-67
2023/07/04 08:13:44;;;;;;;;;;;;;;;;;;5052936;28;19929;-67
2023/07/04 08:16:11;;;;;;;;;;;;;;;;;;5053699;28;19925;-67
2023/07/04 08:18:40;;;;;;;;;;;;;;;;;;5052627;28;20234;-68
2023/07/04 08:21:06;;;;;;;;;;;;;;;;;;5052931;28;19929;-66
2023/07/04 08:23:33;;;;;;;;;;;;;;;;;;5046023;28;19936;-67
2023/07/04 08:25:59;;;;;;;;;;;;;;;;;;5033298;28;19979;-68
2023/07/04 08:28:26;;;;;;;;;;;;;;;;;;5032545;28;20246;-70
2023/07/04 08:30:53;;;;;;;;;;;;;;;;;;5032811;28;19926;-69
2023/07/04 08:33:19;;;;;;;;;;;;;;;;;;5038313;28;19925;-70
2023/07/04 08:35:55;;;;;;;;;;;;;;;;;;5052404;28;20039;-69
2023/07/04 08:38:21;;;;;;;;;;;;;;;;;;5053120;28;20437;-68
2023/07/04 08:40:48;;;;;;;;;;;;;;;;;;5052021;28;19925;-69
2023/07/04 08:43:16;;;;;;;;;;;;;;;;;;5051867;28;20374;-69
2023/07/04 08:45:42;;;;;;;;;;;;;;;;;;5052632;28;20293;-69
2023/07/04 08:48:09;;;;;;;;;;;;;;;;;;5052515;28;19931;-68
2023/07/04 08:50:38;;;;;;;;;;;;;;;;;;5051932;28;19924;-70
2023/07/04 08:53:08;;;;;;;;;;;;;;;;;;5047007;28;20004;-70
2023/07/04 08:55:39;;;;;;;;;;;;;;;;;;5032299;28;19925;-70
2023/07/04 08:58:05;;;;;;;;;;;;;;;;;;5032660;28;20401;-67
2023/07/04 09:00:33;;;;;;;;;;;;;;;;;;5032129;28;20019;-69
2023/07/04 09:03:11;;;;;;;;;;;;;;;;;;5031488;28;19929;-69
2023/07/04 09:05:47;;;;;;;;;;;;;;;;;;5032749;28;19925;-68
2023/07/04 09:08:17;;;;;;;;;;;;;;;;;;5031925;28;19926;-69
2023/07/04 09:10:45;;;;;;;;;;;;;;;;;;5031800;28;20031;-68
2023/07/04 09:13:13;;;;;;;;;;;;;;;;;;5032300;28;20024;-68
2023/07/04 09:15:41;;;;;;;;;;;;;;;;;;5031992;28;19925;-69
2023/07/04 09:18:15;;;;;;;;;;;;;;;;;;5031969;28;19933;-67
2023/07/04 09:20:43;;;;;;;;;;;;;;;;;;5032090;28;20275;-68
2023/07/04 09:23:14;;;;;;;;;;;;;;;;;;5031768;28;19925;-66
2023/07/04 09:25:42;;;;;;;;;;;;;;;;;;5032037;28;19925;-67
2023/07/04 09:28:08;;;;;;;;;;;;;;;;;;5031822;28;19925;-68
2023/07/04 09:30:35;;;;;;;;;;;;;;;;;;5031433;28;20309;-68
2023/07/04 09:33:01;;;;;;;;;;;;;;;;;;5032251;28;19925;-68
2023/07/04 09:35:28;;;;;;;;;;;;;;;;;;5031667;28;20434;-68
2023/07/04 09:37:55;;;;;;;;;;;;;;;;;;5033751;28;19933;-67
2023/07/04 09:40:38;;;;;;;;;;;;;;;;;;5050834;28;19924;-67
2023/07/04 09:43:07;;;;;;;;;;;;;;;;;;5052048;28;20374;-67
2023/07/04 09:45:33;;;;;;;;;;;;;;;;;;5051274;28;19929;-67
2023/07/04 09:48:00;;;;;;;;;;;;;;;;;;5051811;28;20290;-66
2023/07/04 09:50:28;;;;;;;;;;;;;;;;;;5051489;28;20354;-66
2023/07/04 09:53:01;;;;;;;;;;;;;;;;;;5050711;28;20020;-67
2023/07/04 09:55:28;;;;;;;;;;;;;;;;;;5050737;28;20012;-64
2023/07/04 09:58:14;;;;;;;;;;;;;;;;;;5050840;28;20398;-65
2023/07/04 10:00:44;;;;;;;;;;;;;;;;;;5050721;28;20290;-64
2023/07/04 10:03:10;;;;;;;;;;;;;;;;;;5050433;28;20386;-64
2023/07/04 10:05:37;;;;;;;;;;;;;;;;;;5050639;28;20305;-63
2023/07/04 10:08:05;;;;;;;;;;;;;;;;;;5050157;28;20012;-63
2023/07/04 10:10:34;;;;;;;;;;;;;;;;;;5049731;28;19924;-63
2023/07/04 10:13:00;;;;;;;;;;;;;;;;;;5030410;28;19976;-63
2023/07/04 10:15:35;;;;;;;;;;;;;;;;;;5030915;28;19926;-64
2023/07/04 10:18:05;;;;;;;;;;;;;;;;;;5033118;28;20302;-63
2023/07/04 10:20:35;;;;;;;;;;;;;;;;;;5046310;28;19924;-64
2023/07/04 10:23:02;;;;;;;;;;;;;;;;;;5041900;28;20608;-64
2023/07/04 10:25:30;;;;;;;;;;;;;;;;;;5047197;28;19925;-65
2023/07/04 10:27:58;;;;;;;;;;;;;;;;;;5029447;28;19925;-65
2023/07/04 10:30:29;;;;;;;;;;;;;;;;;;5027628;28;19929;-64
2023/07/04 10:32:57;;;;;;;;;;;;;;;;;;5029966;28;19977;-64
2023/07/04 10:35:26;;;;;;;;;;;;;;;;;;5028841;28;19929;-65
2023/07/04 10:37:53;;;;;;;;;;;;;;;;;;5030209;28;19947;-65
2023/07/04 10:40:20;;;;;;;;;;;;;;;;;;5029998;28;20016;-63
2023/07/04 10:42:52;;;;;;;;;;;;;;;;;;5029211;28;19932;-64
2023/07/04 10:45:20;;;;;;;;;;;;;;;;;;5030340;28;20295;-65
2023/07/04 10:47:48;;;;;;;;;;;;;;;;;;5022446;28;20303;-63
2023/07/04 10:50:16;;;;;;;;;;;;;;;;;;5037087;28;19931;-65
2023/07/04 10:52:47;;;;;;;;;;;;;;;;;;5049167;28;19946;-65
2023/07/04 10:55:16;;;;;;;;;;;;;;;;;;5031041;28;19936;-65
2023/07/04 10:57:44;;;;;;;;;;;;;;;;;;5029350;28;19944;-64
2023/07/04 11:00:14;;;;;;;;;;;;;;;;;;5029245;28;19929;-64
2023/07/04 11:02:44;;;;;;;;;;;;;;;;;;5028899;28;19925;-64
2023/07/04 11:05:13;;;;;;;;;;;;;;;;;;5029171;28;19947;-65
2023/07/04 11:07:40;;;;;;;;;;;;;;;;;;5030887;28;19925;-64
2023/07/04 11:10:10;;;;;;;;;;;;;;;;;;5028265;28;19925;-64
2023/07/04 11:12:38;;;;;;;;;;;;;;;;;;5029161;28;19929;-64
2023/07/04 11:15:08;;;;;;;;;;;;;;;;;;5029674;28;19933;-63
2023/07/04 11:17:36;;;;;;;;;;;;;;;;;;5025516;28;19933;-65
2023/07/04 11:20:11;;;;;;;;;;;;;;;;;;5036907;28;19928;-65
2023/07/04 11:22:55;;;;;;;;;;;;;;;;;;5049110;28;19929;-66
2023/07/04 11:25:36;;;;;;;;;;;;;;;;;;5050013;28;20416;-64
2023/07/04 11:28:14;;;;;;;;;;;;;;;;;;5049115;28;20379;-65
2023/07/04 11:30:41;;;;;;;;;;;;;;;;;;5033995;28;19925;-65
2023/07/04 11:33:07;;;;;;;;;;;;;;;;;;5029614;28;19925;-66
2023/07/04 11:35:34;;;;;;;;;;;;;;;;;;5030296;28;19925;-65
2023/07/04 11:38:04;;;;;;;;;;;;;;;;;;5029818;28;20290;-66
2023/07/04 11:40:32;;;;;;;;;;;;;;;;;;5029334;28;19929;-66
2023/07/04 11:43:04;;;;;;;;;;;;;;;;;;5029969;28;19932;-66
2023/07/04 11:45:31;;;;;;;;;;;;;;;;;;5029560;28;19925;-66
2023/07/04 11:48:01;;;;;;;;;;;;;;;;;;5030118;28;20366;-66
2023/07/04 11:50:33;;;;;;;;;;;;;;;;;;5029817;28;19925;-66
2023/07/04 11:53:01;;;;;;;;;;;;;;;;;;5030063;28;19960;-65
2023/07/04 11:55:30;;;;;;;;;;;;;;;;;;5029560;28;20214;-66
2023/07/04 11:58:02;;;;;;;;;;;;;;;;;;5029853;28;20294;-66
2023/07/04 12:00:54;;;;;;;;;;;;;;;;;;5027076;28;19970;-66
2023/07/04 12:03:45;;;;;;;;;;;;;;;;;;5029933;28;19931;-67
2023/07/04 12:06:32;;;;;;;;;;;;;;;;;;5029111;28;19932;-66
2023/07/04 12:08:59;;;;;;;;;;;;;;;;;;5029657;28;20318;-66
2023/07/04 12:11:36;;;;;;;;;;;;;;;;;;5028978;28;19926;-66
2023/07/04 12:14:05;;;;;;;;;;;;;;;;;;5029518;28;20397;-65
2023/07/04 12:16:32;;;;;;;;;;;;;;;;;;5029091;28;20284;-66
2023/07/04 12:19:04;;;;;;;;;;;;;;;;;;5030661;28;20016;-65
2023/07/04 12:21:32;;;;;;;;;;;;;;;;;;5032205;28;19925;-65
2023/07/04 12:24:02;;;;;;;;;;;;;;;;;;5033319;28;20248;-67
2023/07/04 12:26:30;;;;;;;;;;;;;;;;;;5032775;28;20303;-66
2023/07/04 12:28:56;;;;;;;;;;;;;;;;;;5033137;28;19932;-66
2023/07/04 12:31:24;;;;;;;;;;;;;;;;;;5032389;28;19925;-65
2023/07/04 12:33:53;;;;;;;;;;;;;;;;;;5032525;28;19925;-66
2023/07/04 12:36:19;;;;;;;;;;;;;;;;;;5033044;28;19925;-66
2023/07/04 12:38:47;;;;;;;;;;;;;;;;;;5032591;28;20359;-66
2023/07/04 12:41:15;;;;;;;;;;;;;;;;;;5032338;28;19931;-65
2023/07/04 12:43:42;;;;;;;;;;;;;;;;;;5032142;28;19968;-66
2023/07/04 12:46:09;;;;;;;;;;;;;;;;;;5032433;28;19925;-66
2023/07/04 12:48:37;;;;;;;;;;;;;;;;;;5028909;28;19932;-66
2023/07/04 12:51:06;;;;;;;;;;;;;;;;;;5032288;28;19947;-65
2023/07/04 12:53:33;;;;;;;;;;;;;;;;;;5032137;28;19932;-67
2023/07/04 12:56:00;;;;;;;;;;;;;;;;;;5032813;28;19932;-66
2023/07/04 12:58:27;;;;;;;;;;;;;;;;;;5032816;28;19932;-66
2023/07/04 13:01:02;;;;;;;;;;;;;;;;;;5031560;28;20019;-67
2023/07/04 13:03:29;;;;;;;;;;;;;;;;;;5032423;28;19932;-68
2023/07/04 13:05:57;;;;;;;;;;;;;;;;;;5031872;28;19987;-66
2023/07/04 13:08:25;;;;;;;;;;;;;;;;;;5032624;28;19925;-66
2023/07/04 13:10:52;;;;;;;;;;;;;;;;;;5031881;28;20386;-67
2023/07/04 13:13:36;;;;;;;;;;;;;;;;;;5031972;28;19939;-67
2023/07/04 13:16:10;;;;;;;;;;;;;;;;;;5031659;28;19925;-67
2023/07/04 13:18:39;;;;;;;;;;;;;;;;;;5030353;28;19954;-67
2023/07/04 13:21:07;;;;;;;;;;;;;;;;;;5031177;28;20468;-67
2023/07/04 13:23:34;;;;;;;;;;;;;;;;;;5031770;28;19932;-67
2023/07/04 13:26:01;;;;;;;;;;;;;;;;;;5031517;28;19925;-67
2023/07/04 13:28:29;;;;;;;;;;;;;;;;;;5032003;28;19931;-66
2023/07/04 13:31:10;;;;;;;;;;;;;;;;;;5030947;28;19925;-66
2023/07/04 13:33:36;;;;;;;;;;;;;;;;;;5031624;28;20031;-67
2023/07/04 13:36:10;;;;;;;;;;;;;;;;;;5032001;28;19931;-67
2023/07/04 13:38:37;;;;;;;;;;;;;;;;;;5041981;28;19970;-66
2023/07/04 13:41:03;;;;;;;;;;;;;;;;;;5051128;28;20379;-67
2023/07/04 13:43:30;;;;;;;;;;;;;;;;;;5051248;28;19925;-66
2023/07/04 13:45:56;;;;;;;;;;;;;;;;;;5051747;28;20015;-67
2023/07/04 13:48:24;;;;;;;;;;;;;;;;;;5041973;28;19925;-66
2023/07/04 13:50:51;;;;;;;;;;;;;;;;;;5051104;28;19929;-66
2023/07/04 13:53:18;;;;;;;;;;;;;;;;;;5051155;28;19925;-66
2023/07/04 13:55:45;;;;;;;;;;;;;;;;;;5051242;28;19929;-67
2023/07/04 13:58:11;;;;;;;;;;;;;;;;;;5051474;28;20012;-67
2023/07/04 14:00:37;;;;;;;;;;;;;;;;;;5051459;28;19925;-67
2023/07/04 14:03:04;;;;;;;;;;;;;;;;;;5043481;28;19973;-66
2023/07/04 14:05:31;;;;;;;;;;;;;;;;;;5032302;28;19925;-67
2023/07/04 14:07:57;;;;;;;;;;;;;;;;;;5032451;28;19925;-67
2023/07/04 14:10:25;;;;;;;;;;;;;;;;;;5030964;28;19968;-67
2023/07/04 14:12:51;;;;;;;;;;;;;;;;;;5031093;28;19932;-68
2023/07/04 14:15:18;;;;;;;;;;;;;;;;;;5030997;28;19925;-67
2023/07/04 14:17:44;;;;;;;;;;;;;;;;;;5030945;28;19929;-67
2023/07/04 14:20:11;;;;;;;;;;;;;;;;;;5030856;28;19925;-67
2023/07/04 14:22:37;;;;;;;;;;;;;;;;;;5031146;28;19931;-67
2023/07/04 14:25:04;;;;;;;;;;;;;;;;;;5030916;28;19964;-66
2023/07/04 14:27:33;;;;;;;;;;;;;;;;;;5030648;28;20094;-66
2023/07/04 14:30:00;;;;;;;;;;;;;;;;;;5030407;28;19936;-67
2023/07/04 14:32:26;;;;;;;;;;;;;;;;;;5029052;28;20387;-67
2023/07/04 14:34:53;;;;;;;;;;;;;;;;;;5049044;28;19931;-67
2023/07/04 14:37:20;;;;;;;;;;;;;;;;;;5049865;28;20016;-67
2023/07/04 14:39:50;;;;;;;;;;;;;;;;;;5050333;28;20389;-67
2023/07/04 14:42:17;;;;;;;;;;;;;;;;;;5049322;28;19925;-67
2023/07/04 14:44:45;;;;;;;;;;;;;;;;;;5050472;28;20395;-67
2023/07/04 14:47:12;;;;;;;;;;;;;;;;;;5050603;28;19925;-66
2023/07/04 14:49:38;;;;;;;;;;;;;;;;;;5050117;28;20416;-67
2023/07/04 14:52:05;;;;;;;;;;;;;;;;;;5050040;28;19929;-65
2023/07/04 14:54:34;;;;;;;;;;;;;;;;;;5028927;28;19976;-66
2023/07/04 14:57:00;;;;;;;;;;;;;;;;;;5030390;28;19968;-67
2023/07/04 14:59:28;;;;;;;;;;;;;;;;;;5029863;28;19929;-66
2023/07/04 15:01:56;;;;;;;;;;;;;;;;;;5030753;28;20016;-67
2023/07/04 15:04:22;;;;;;;;;;;;;;;;;;5030475;28;19925;-67
2023/07/04 15:06:49;;;;;;;;;;;;;;;;;;5030505;28;19925;-67
2023/07/04 15:09:15;;;;;;;;;;;;;;;;;;5029706;28;20015;-67
2023/07/04 15:11:42;;;;;;;;;;;;;;;;;;5029971;28;20302;-67
2023/07/04 15:14:08;;;;;;;;;;;;;;;;;;5029310;28;20383;-67
2023/07/04 15:16:35;;;;;;;;;;;;;;;;;;5030118;28;19925;-65
2023/07/04 15:19:03;;;;;;;;;;;;;;;;;;5032966;28;19925;-66
2023/07/04 15:21:29;;;;;;;;;;;;;;;;;;5029335;28;20012;-67
2023/07/04 15:23:56;;;;;;;;;;;;;;;;;;5029929;28;19929;-67
2023/07/04 15:26:24;;;;;;;;;;;;;;;;;;5029465;28;19925;-67
2023/07/04 15:28:50;;;;;;;;;;;;;;;;;;5029696;28;19936;-66
2023/07/04 15:31:16;;;;;;;;;;;;;;;;;;5029525;28;19925;-66
2023/07/04 15:33:43;;;;;;;;;;;;;;;;;;5029928;28;19925;-66
2023/07/04 15:36:11;;;;;;;;;;;;;;;;;;5029494;28;19968;-66
2023/07/04 15:38:37;;;;;;;;;;;;;;;;;;5039156;28;19924;-66
2023/07/04 15:41:04;;;;;;;;;;;;;;;;;;5048723;28;19931;-67
2023/07/04 15:43:32;;;;;;;;;;;;;;;;;;5049365;28;19925;-66
2023/07/04 15:45:59;;;;;;;;;;;;;;;;;;5049587;28;19975;-66
2023/07/04 15:48:26;;;;;;;;;;;;;;;;;;5027802;28;20017;-68
2023/07/04 15:50:55;;;;;;;;;;;;;;;;;;5029499;28;19925;-67
2023/07/04 15:53:23;;;;;;;;;;;;;;;;;;5031252;28;19973;-67
2023/07/04 15:55:51;;;;;;;;;;;;;;;;;;5033710;28;19925;-67
2023/07/04 15:58:17;;;;;;;;;;;;;;;;;;5032928;28;19925;-67
2023/07/04 16:00:44;;;;;;;;;;;;;;;;;;5032835;28;19925;-67
2023/07/04 16:03:11;;;;;;;;;;;;;;;;;;5032940;28;19925;-67
2023/07/04 16:05:40;;;;;;;;;;;;;;;;;;5033676;28;20016;-67
2023/07/04 16:08:07;;;;;;;;;;;;;;;;;;5032845;28;20382;-67
2023/07/04 16:10:35;;;;;;;;;;;;;;;;;;5032962;28;20263;-67
2023/07/04 16:13:01;;;;;;;;;;;;;;;;;;5033502;28;19925;-66
2023/07/04 16:15:27;;;;;;;;;;;;;;;;;;5032709;28;20245;-66
2023/07/04 16:17:54;;;;;;;;;;;;;;;;;;5033195;28;19925;-67
2023/07/04 16:20:20;;;;;;;;;;;;;;;;;;5032564;28;19925;-67
2023/07/04 16:22:47;;;;;;;;;;;;;;;;;;5033049;28;19925;-67
2023/07/04 16:25:13;;;;;;;;;;;;;;;;;;5032408;28;19929;-66
2023/07/04 16:27:41;;;;;;;;;;;;;;;;;;5033278;28;19932;-67
2023/07/04 16:30:08;;;;;;;;;;;;;;;;;;5032261;28;19925;-66
2023/07/04 16:32:34;;;;;;;;;;;;;;;;;;5033489;28;19937;-67
2023/07/04 16:35:02;;;;;;;;;;;;;;;;;;5032612;28;19925;-66
2023/07/04 16:37:28;;;;;;;;;;;;;;;;;;5032681;28;20279;-67
2023/07/04 16:39:55;;;;;;;;;;;;;;;;;;5032629;28;19925;-66
2023/07/04 16:42:21;;;;;;;;;;;;;;;;;;5032660;28;19932;-66
2023/07/04 16:44:49;;;;;;;;;;;;;;;;;;5032881;28;20457;-66
2023/07/04 16:47:15;;;;;;;;;;;;;;;;;;5032293;28;19955;-67
2023/07/04 16:49:42;;;;;;;;;;;;;;;;;;5032845;28;19932;-67